sensor_id;sensor_type;location;lat;lon;timestamp;P1;durP1;ratioP1;P2;durP2;ratioP2
12567;SDS011;6349;50.904;6.136;2023-10-09T00:01:14;5.95;;;3.83;;
12567;SDS011;6349;50.904;6.136;2023-10-09T00:03:15;6.38;;;4.28;;
12567;SDS011;6349;50.904;6.136;2023-10-09T00:05:17;6.65;;;3.83;;
12567;SDS011;6349;50.904;6.136;2023-10-09T00:07:24;4.40;;;3.65;;
12567;SDS011;6349;50.904;6.136;2023-10-09T00:09:25;4.40;;;4.00;;
12567;SDS011;6349;50.904;6.136;2023-10-09T00:11:31;7.25;;;3.90;;
12567;SDS011;6349;50.904;6.136;2023-10-09T00:13:38;7.32;;;4.38;;
12567;SDS011;6349;50.904;6.136;2023-10-09T00:15:48;6.43;;;4.20;;
12567;SDS011;6349;50.904;6.136;2023-10-09T00:17:53;8.18;;;3.90;;
12567;SDS011;6349;50.904;6.136;2023-10-09T00:19:56;4.80;;;3.88;;
12567;SDS011;6349;50.904;6.136;2023-10-09T00:22:00;4.68;;;4.20;;
12567;SDS011;6349;50.904;6.136;2023-10-09T00:24:04;5.13;;;4.10;;
12567;SDS011;6349;50.904;6.136;2023-10-09T00:26:13;6.32;;;4.25;;
12567;SDS011;6349;50.904;6.136;2023-10-09T00:28:16;5.50;;;4.32;;
12567;SDS011;6349;50.904;6.136;2023-10-09T00:30:21;6.45;;;4.25;;
12567;SDS011;6349;50.904;6.136;2023-10-09T00:32:29;5.10;;;4.13;;
12567;SDS011;6349;50.904;6.136;2023-10-09T00:34:33;4.93;;;3.97;;
12567;SDS011;6349;50.904;6.136;2023-10-09T00:36:39;5.50;;;3.80;;
12567;SDS011;6349;50.904;6.136;2023-10-09T00:38:50;6.32;;;3.97;;
12567;SDS011;6349;50.904;6.136;2023-10-09T00:40:51;4.68;;;4.05;;
12567;SDS011;6349;50.904;6.136;2023-10-09T00:43:00;6.13;;;4.35;;
12567;SDS011;6349;50.904;6.136;2023-10-09T00:45:06;5.85;;;4.25;;
12567;SDS011;6349;50.904;6.136;2023-10-09T00:47:16;4.20;;;3.60;;
12567;SDS011;6349;50.904;6.136;2023-10-09T00:49:20;5.50;;;3.72;;
12567;SDS011;6349;50.904;6.136;2023-10-09T00:51:22;6.07;;;3.83;;
12567;SDS011;6349;50.904;6.136;2023-10-09T00:53:24;6.63;;;3.95;;
12567;SDS011;6349;50.904;6.136;2023-10-09T00:55:31;5.25;;;3.83;;
12567;SDS011;6349;50.904;6.136;2023-10-09T00:57:38;4.68;;;3.60;;
12567;SDS011;6349;50.904;6.136;2023-10-09T00:59:42;4.68;;;3.55;;
12567;SDS011;6349;50.904;6.136;2023-10-09T01:01:43;4.25;;;3.72;;
12567;SDS011;6349;50.904;6.136;2023-10-09T01:03:56;5.13;;;4.00;;
12567;SDS011;6349;50.904;6.136;2023-10-09T01:06:02;5.55;;;3.97;;
12567;SDS011;6349;50.904;6.136;2023-10-09T01:08:09;5.88;;;4.20;;
12567;SDS011;6349;50.904;6.136;2023-10-09T01:10:25;4.95;;;4.25;;
12567;SDS011;6349;50.904;6.136;2023-10-09T01:12:33;4.53;;;4.00;;
12567;SDS011;6349;50.904;6.136;2023-10-09T01:14:33;4.50;;;3.63;;
12567;SDS011;6349;50.904;6.136;2023-10-09T01:16:41;5.38;;;3.72;;
12567;SDS011;6349;50.904;6.136;2023-10-09T01:18:45;4.93;;;4.10;;
12567;SDS011;6349;50.904;6.136;2023-10-09T01:20:51;5.38;;;4.07;;
12567;SDS011;6349;50.904;6.136;2023-10-09T01:22:52;4.35;;;3.80;;
12567;SDS011;6349;50.904;6.136;2023-10-09T01:24:53;5.43;;;3.80;;
12567;SDS011;6349;50.904;6.136;2023-10-09T01:26:55;4.95;;;3.83;;
12567;SDS011;6349;50.904;6.136;2023-10-09T01:28:57;5.50;;;3.85;;
12567;SDS011;6349;50.904;6.136;2023-10-09T01:31:00;6.40;;;4.00;;
12567;SDS011;6349;50.904;6.136;2023-10-09T01:33:01;6.10;;;3.95;;
12567;SDS011;6349;50.904;6.136;2023-10-09T01:35:11;4.85;;;4.05;;
12567;SDS011;6349;50.904;6.136;2023-10-09T01:37:20;6.15;;;4.50;;
12567;SDS011;6349;50.904;6.136;2023-10-09T01:39:23;6.43;;;4.63;;
12567;SDS011;6349;50.904;6.136;2023-10-09T01:41:24;6.30;;;4.30;;
12567;SDS011;6349;50.904;6.136;2023-10-09T01:43:24;5.40;;;4.63;;
12567;SDS011;6349;50.904;6.136;2023-10-09T01:45:25;5.15;;;3.88;;
12567;SDS011;6349;50.904;6.136;2023-10-09T01:47:25;5.95;;;4.55;;
12567;SDS011;6349;50.904;6.136;2023-10-09T01:49:31;5.93;;;4.22;;
12567;SDS011;6349;50.904;6.136;2023-10-09T01:51:32;6.18;;;4.13;;
12567;SDS011;6349;50.904;6.136;2023-10-09T01:53:36;5.53;;;4.22;;
12567;SDS011;6349;50.904;6.136;2023-10-09T01:55:38;6.78;;;4.60;;
12567;SDS011;6349;50.904;6.136;2023-10-09T01:57:40;7.15;;;4.38;;
12567;SDS011;6349;50.904;6.136;2023-10-09T01:59:44;5.80;;;4.47;;
12567;SDS011;6349;50.904;6.136;2023-10-09T02:01:47;5.40;;;3.92;;
12567;SDS011;6349;50.904;6.136;2023-10-09T02:03:47;6.00;;;4.30;;
12567;SDS011;6349;50.904;6.136;2023-10-09T02:05:52;6.32;;;4.50;;
12567;SDS011;6349;50.904;6.136;2023-10-09T02:08:17;4.65;;;4.10;;
12567;SDS011;6349;50.904;6.136;2023-10-09T02:10:22;4.53;;;4.03;;
12567;SDS011;6349;50.904;6.136;2023-10-09T02:12:29;6.97;;;4.07;;
12567;SDS011;6349;50.904;6.136;2023-10-09T02:14:33;6.20;;;4.25;;
12567;SDS011;6349;50.904;6.136;2023-10-09T02:16:41;4.68;;;4.03;;
12567;SDS011;6349;50.904;6.136;2023-10-09T02:18:42;5.57;;;4.32;;
12567;SDS011;6349;50.904;6.136;2023-10-09T02:22:59;6.80;;;4.78;;
12567;SDS011;6349;50.904;6.136;2023-10-09T02:25:00;5.95;;;4.50;;
12567;SDS011;6349;50.904;6.136;2023-10-09T02:27:05;5.97;;;4.05;;
12567;SDS011;6349;50.904;6.136;2023-10-09T02:29:06;6.40;;;4.65;;
12567;SDS011;6349;50.904;6.136;2023-10-09T02:31:16;5.93;;;4.30;;
12567;SDS011;6349;50.904;6.136;2023-10-09T02:33:16;6.82;;;4.22;;
12567;SDS011;6349;50.904;6.136;2023-10-09T02:35:30;7.30;;;4.63;;
12567;SDS011;6349;50.904;6.136;2023-10-09T02:37:42;6.05;;;4.00;;
12567;SDS011;6349;50.904;6.136;2023-10-09T02:39:45;7.00;;;4.40;;
12567;SDS011;6349;50.904;6.136;2023-10-09T02:41:49;6.40;;;4.40;;
12567;SDS011;6349;50.904;6.136;2023-10-09T02:43:50;5.82;;;4.60;;
12567;SDS011;6349;50.904;6.136;2023-10-09T02:45:55;6.72;;;4.53;;
12567;SDS011;6349;50.904;6.136;2023-10-09T02:47:55;5.25;;;4.35;;
12567;SDS011;6349;50.904;6.136;2023-10-09T02:49:56;6.50;;;4.70;;
12567;SDS011;6349;50.904;6.136;2023-10-09T02:52:06;7.72;;;4.80;;
12567;SDS011;6349;50.904;6.136;2023-10-09T02:54:08;5.38;;;4.25;;
12567;SDS011;6349;50.904;6.136;2023-10-09T02:56:18;5.10;;;3.90;;
12567;SDS011;6349;50.904;6.136;2023-10-09T02:58:24;6.85;;;4.60;;
12567;SDS011;6349;50.904;6.136;2023-10-09T03:00:25;5.75;;;4.45;;
12567;SDS011;6349;50.904;6.136;2023-10-09T03:02:32;5.07;;;4.07;;
12567;SDS011;6349;50.904;6.136;2023-10-09T03:04:33;5.20;;;4.40;;
12567;SDS011;6349;50.904;6.136;2023-10-09T03:06:34;5.68;;;4.50;;
12567;SDS011;6349;50.904;6.136;2023-10-09T03:08:49;5.82;;;4.63;;
12567;SDS011;6349;50.904;6.136;2023-10-09T03:10:50;6.05;;;4.13;;
12567;SDS011;6349;50.904;6.136;2023-10-09T03:12:51;5.88;;;4.25;;
12567;SDS011;6349;50.904;6.136;2023-10-09T03:14:53;5.63;;;4.80;;
12567;SDS011;6349;50.904;6.136;2023-10-09T03:16:55;5.68;;;4.35;;
12567;SDS011;6349;50.904;6.136;2023-10-09T03:18:56;8.15;;;4.68;;
12567;SDS011;6349;50.904;6.136;2023-10-09T03:20:57;6.60;;;4.30;;
12567;SDS011;6349;50.904;6.136;2023-10-09T03:22:59;6.22;;;4.72;;
12567;SDS011;6349;50.904;6.136;2023-10-09T03:25:01;5.35;;;4.28;;
12567;SDS011;6349;50.904;6.136;2023-10-09T03:27:04;4.95;;;4.03;;
12567;SDS011;6349;50.904;6.136;2023-10-09T03:29:05;7.60;;;4.70;;
12567;SDS011;6349;50.904;6.136;2023-10-09T03:31:10;5.30;;;4.50;;
12567;SDS011;6349;50.904;6.136;2023-10-09T03:33:11;7.80;;;4.47;;
12567;SDS011;6349;50.904;6.136;2023-10-09T03:35:13;5.40;;;4.10;;
12567;SDS011;6349;50.904;6.136;2023-10-09T03:37:17;5.38;;;4.10;;
12567;SDS011;6349;50.904;6.136;2023-10-09T03:39:33;6.43;;;4.35;;
12567;SDS011;6349;50.904;6.136;2023-10-09T03:41:38;7.10;;;4.55;;
12567;SDS011;6349;50.904;6.136;2023-10-09T03:43:42;7.45;;;4.60;;
12567;SDS011;6349;50.904;6.136;2023-10-09T03:45:42;5.93;;;4.22;;
12567;SDS011;6349;50.904;6.136;2023-10-09T03:47:52;6.03;;;4.57;;
12567;SDS011;6349;50.904;6.136;2023-10-09T03:50:04;7.28;;;4.78;;
12567;SDS011;6349;50.904;6.136;2023-10-09T03:52:24;7.63;;;4.38;;
12567;SDS011;6349;50.904;6.136;2023-10-09T03:54:27;7.03;;;4.30;;
12567;SDS011;6349;50.904;6.136;2023-10-09T03:56:30;6.85;;;4.80;;
12567;SDS011;6349;50.904;6.136;2023-10-09T03:58:32;6.20;;;4.53;;
12567;SDS011;6349;50.904;6.136;2023-10-09T04:00:34;6.38;;;4.70;;
12567;SDS011;6349;50.904;6.136;2023-10-09T04:02:44;7.72;;;4.68;;
12567;SDS011;6349;50.904;6.136;2023-10-09T04:04:45;6.85;;;5.00;;
12567;SDS011;6349;50.904;6.136;2023-10-09T04:06:47;6.85;;;4.95;;
12567;SDS011;6349;50.904;6.136;2023-10-09T04:08:49;6.32;;;5.15;;
12567;SDS011;6349;50.904;6.136;2023-10-09T04:10:51;5.68;;;5.00;;
12567;SDS011;6349;50.904;6.136;2023-10-09T04:12:52;6.65;;;4.85;;
12567;SDS011;6349;50.904;6.136;2023-10-09T04:14:53;5.93;;;4.95;;
12567;SDS011;6349;50.904;6.136;2023-10-09T04:16:56;7.53;;;4.90;;
12567;SDS011;6349;50.904;6.136;2023-10-09T04:19:05;6.70;;;4.65;;
12567;SDS011;6349;50.904;6.136;2023-10-09T04:21:11;7.20;;;5.10;;
12567;SDS011;6349;50.904;6.136;2023-10-09T04:23:34;5.32;;;4.82;;
12567;SDS011;6349;50.904;6.136;2023-10-09T04:25:36;6.25;;;4.70;;
12567;SDS011;6349;50.904;6.136;2023-10-09T04:27:42;7.38;;;4.63;;
12567;SDS011;6349;50.904;6.136;2023-10-09T04:29:44;7.00;;;4.38;;
12567;SDS011;6349;50.904;6.136;2023-10-09T04:31:47;6.72;;;4.85;;
12567;SDS011;6349;50.904;6.136;2023-10-09T04:33:51;9.15;;;5.18;;
12567;SDS011;6349;50.904;6.136;2023-10-09T04:36:01;7.30;;;5.70;;
12567;SDS011;6349;50.904;6.136;2023-10-09T04:38:20;9.13;;;5.72;;
12567;SDS011;6349;50.904;6.136;2023-10-09T04:40:22;6.53;;;5.15;;
12567;SDS011;6349;50.904;6.136;2023-10-09T04:42:55;7.47;;;5.15;;
12567;SDS011;6349;50.904;6.136;2023-10-09T04:44:59;5.68;;;5.03;;
12567;SDS011;6349;50.904;6.136;2023-10-09T04:47:19;6.70;;;5.57;;
12567;SDS011;6349;50.904;6.136;2023-10-09T04:49:25;7.13;;;4.78;;
12567;SDS011;6349;50.904;6.136;2023-10-09T04:51:28;7.25;;;5.13;;
12567;SDS011;6349;50.904;6.136;2023-10-09T04:53:36;5.82;;;4.65;;
12567;SDS011;6349;50.904;6.136;2023-10-09T04:55:43;6.03;;;4.82;;
12567;SDS011;6349;50.904;6.136;2023-10-09T04:57:54;7.03;;;4.97;;
12567;SDS011;6349;50.904;6.136;2023-10-09T05:00:14;7.28;;;5.28;;
12567;SDS011;6349;50.904;6.136;2023-10-09T05:02:42;6.20;;;5.10;;
12567;SDS011;6349;50.904;6.136;2023-10-09T05:04:42;9.98;;;5.63;;
12567;SDS011;6349;50.904;6.136;2023-10-09T05:06:47;6.07;;;4.95;;
12567;SDS011;6349;50.904;6.136;2023-10-09T05:08:55;6.72;;;5.40;;
12567;SDS011;6349;50.904;6.136;2023-10-09T05:10:59;6.45;;;5.30;;
12567;SDS011;6349;50.904;6.136;2023-10-09T05:13:03;6.00;;;5.13;;
12567;SDS011;6349;50.904;6.136;2023-10-09T05:15:06;5.97;;;5.00;;
12567;SDS011;6349;50.904;6.136;2023-10-09T05:17:08;5.78;;;5.03;;
12567;SDS011;6349;50.904;6.136;2023-10-09T05:19:15;8.48;;;5.07;;
12567;SDS011;6349;50.904;6.136;2023-10-09T05:21:38;5.80;;;5.13;;
12567;SDS011;6349;50.904;6.136;2023-10-09T05:23:42;5.88;;;4.63;;
12567;SDS011;6349;50.904;6.136;2023-10-09T05:25:49;7.03;;;4.95;;
12567;SDS011;6349;50.904;6.136;2023-10-09T05:27:53;7.60;;;5.28;;
12567;SDS011;6349;50.904;6.136;2023-10-09T05:30:13;6.15;;;4.82;;
12567;SDS011;6349;50.904;6.136;2023-10-09T05:32:26;6.47;;;5.45;;
12567;SDS011;6349;50.904;6.136;2023-10-09T05:34:35;5.72;;;4.82;;
12567;SDS011;6349;50.904;6.136;2023-10-09T05:36:54;7.93;;;5.00;;
12567;SDS011;6349;50.904;6.136;2023-10-09T05:39:10;6.13;;;4.68;;
12567;SDS011;6349;50.904;6.136;2023-10-09T05:41:18;7.25;;;5.00;;
12567;SDS011;6349;50.904;6.136;2023-10-09T05:43:45;7.10;;;5.20;;
12567;SDS011;6349;50.904;6.136;2023-10-09T05:46:04;7.55;;;5.13;;
12567;SDS011;6349;50.904;6.136;2023-10-09T05:48:09;7.93;;;4.88;;
12567;SDS011;6349;50.904;6.136;2023-10-09T05:50:12;7.82;;;5.10;;
12567;SDS011;6349;50.904;6.136;2023-10-09T05:52:13;6.65;;;5.13;;
12567;SDS011;6349;50.904;6.136;2023-10-09T05:54:32;8.45;;;5.15;;
12567;SDS011;6349;50.904;6.136;2023-10-09T05:57:08;6.07;;;4.97;;
12567;SDS011;6349;50.904;6.136;2023-10-09T05:59:47;6.25;;;4.68;;
12567;SDS011;6349;50.904;6.136;2023-10-09T06:02:06;6.90;;;5.15;;
12567;SDS011;6349;50.904;6.136;2023-10-09T06:04:25;9.07;;;5.30;;
12567;SDS011;6349;50.904;6.136;2023-10-09T06:06:45;6.55;;;5.35;;
12567;SDS011;6349;50.904;6.136;2023-10-09T06:08:46;7.32;;;5.00;;
12567;SDS011;6349;50.904;6.136;2023-10-09T06:10:46;7.05;;;4.95;;
12567;SDS011;6349;50.904;6.136;2023-10-09T06:12:48;6.22;;;4.88;;
12567;SDS011;6349;50.904;6.136;2023-10-09T06:14:56;6.78;;;5.13;;
12567;SDS011;6349;50.904;6.136;2023-10-09T06:17:18;7.03;;;5.50;;
12567;SDS011;6349;50.904;6.136;2023-10-09T06:19:27;7.30;;;5.07;;
12567;SDS011;6349;50.904;6.136;2023-10-09T06:21:28;7.30;;;4.68;;
12567;SDS011;6349;50.904;6.136;2023-10-09T06:23:47;7.38;;;5.18;;
12567;SDS011;6349;50.904;6.136;2023-10-09T06:26:06;7.55;;;4.95;;
12567;SDS011;6349;50.904;6.136;2023-10-09T06:28:23;7.95;;;5.50;;
12567;SDS011;6349;50.904;6.136;2023-10-09T06:30:34;6.53;;;4.95;;
12567;SDS011;6349;50.904;6.136;2023-10-09T06:32:35;7.68;;;5.18;;
12567;SDS011;6349;50.904;6.136;2023-10-09T06:34:37;7.32;;;5.55;;
12567;SDS011;6349;50.904;6.136;2023-10-09T06:36:44;7.53;;;5.10;;
12567;SDS011;6349;50.904;6.136;2023-10-09T06:38:53;7.20;;;5.03;;
12567;SDS011;6349;50.904;6.136;2023-10-09T06:41:13;7.05;;;4.90;;
12567;SDS011;6349;50.904;6.136;2023-10-09T06:43:32;6.05;;;4.90;;
12567;SDS011;6349;50.904;6.136;2023-10-09T06:45:36;6.28;;;4.82;;
12567;SDS011;6349;50.904;6.136;2023-10-09T06:47:47;8.40;;;5.00;;
12567;SDS011;6349;50.904;6.136;2023-10-09T06:50:10;5.18;;;4.68;;
12567;SDS011;6349;50.904;6.136;2023-10-09T06:52:20;7.60;;;5.25;;
12567;SDS011;6349;50.904;6.136;2023-10-09T06:54:41;8.13;;;5.07;;
12567;SDS011;6349;50.904;6.136;2023-10-09T06:56:49;8.20;;;5.45;;
12567;SDS011;6349;50.904;6.136;2023-10-09T06:58:53;6.97;;;5.40;;
12567;SDS011;6349;50.904;6.136;2023-10-09T07:00:57;8.00;;;5.15;;
12567;SDS011;6349;50.904;6.136;2023-10-09T07:02:58;7.53;;;5.15;;
12567;SDS011;6349;50.904;6.136;2023-10-09T07:05:11;10.55;;;5.72;;
12567;SDS011;6349;50.904;6.136;2023-10-09T07:07:17;10.25;;;6.10;;
12567;SDS011;6349;50.904;6.136;2023-10-09T07:09:20;7.03;;;5.65;;
12567;SDS011;6349;50.904;6.136;2023-10-09T07:11:21;8.43;;;6.22;;
12567;SDS011;6349;50.904;6.136;2023-10-09T07:13:37;7.00;;;5.70;;
12567;SDS011;6349;50.904;6.136;2023-10-09T07:15:42;8.10;;;5.78;;
12567;SDS011;6349;50.904;6.136;2023-10-09T07:18:01;6.97;;;5.50;;
12567;SDS011;6349;50.904;6.136;2023-10-09T07:20:18;7.32;;;5.35;;
12567;SDS011;6349;50.904;6.136;2023-10-09T07:22:36;6.68;;;5.40;;
12567;SDS011;6349;50.904;6.136;2023-10-09T07:24:53;7.85;;;6.18;;
12567;SDS011;6349;50.904;6.136;2023-10-09T07:26:56;6.68;;;5.22;;
12567;SDS011;6349;50.904;6.136;2023-10-09T07:29:06;8.75;;;5.75;;
12567;SDS011;6349;50.904;6.136;2023-10-09T07:31:21;6.72;;;5.20;;
12567;SDS011;6349;50.904;6.136;2023-10-09T07:33:27;7.18;;;5.75;;
12567;SDS011;6349;50.904;6.136;2023-10-09T07:35:52;9.23;;;6.15;;
12567;SDS011;6349;50.904;6.136;2023-10-09T07:37:52;7.75;;;5.95;;
12567;SDS011;6349;50.904;6.136;2023-10-09T07:39:53;7.60;;;5.50;;
12567;SDS011;6349;50.904;6.136;2023-10-09T07:42:00;7.38;;;5.85;;
12567;SDS011;6349;50.904;6.136;2023-10-09T07:44:15;8.10;;;5.95;;
12567;SDS011;6349;50.904;6.136;2023-10-09T07:46:36;7.72;;;6.03;;
12567;SDS011;6349;50.904;6.136;2023-10-09T07:48:52;7.57;;;5.70;;
12567;SDS011;6349;50.904;6.136;2023-10-09T07:50:53;7.63;;;5.72;;
12567;SDS011;6349;50.904;6.136;2023-10-09T07:52:57;8.00;;;5.90;;
12567;SDS011;6349;50.904;6.136;2023-10-09T07:55:15;8.32;;;5.75;;
12567;SDS011;6349;50.904;6.136;2023-10-09T07:57:39;7.93;;;5.50;;
12567;SDS011;6349;50.904;6.136;2023-10-09T07:59:39;8.95;;;5.93;;
12567;SDS011;6349;50.904;6.136;2023-10-09T08:01:42;8.57;;;6.30;;
12567;SDS011;6349;50.904;6.136;2023-10-09T08:03:52;7.55;;;6.00;;
12567;SDS011;6349;50.904;6.136;2023-10-09T08:06:04;9.30;;;6.30;;
12567;SDS011;6349;50.904;6.136;2023-10-09T08:08:24;8.63;;;6.38;;
12567;SDS011;6349;50.904;6.136;2023-10-09T08:10:33;11.45;;;6.43;;
12567;SDS011;6349;50.904;6.136;2023-10-09T08:13:04;7.43;;;5.95;;
12567;SDS011;6349;50.904;6.136;2023-10-09T08:15:25;10.48;;;6.40;;
12567;SDS011;6349;50.904;6.136;2023-10-09T08:17:52;8.27;;;6.20;;
12567;SDS011;6349;50.904;6.136;2023-10-09T08:19:54;8.68;;;6.35;;
12567;SDS011;6349;50.904;6.136;2023-10-09T08:21:55;8.63;;;6.18;;
12567;SDS011;6349;50.904;6.136;2023-10-09T08:24:14;8.50;;;5.85;;
12567;SDS011;6349;50.904;6.136;2023-10-09T08:26:41;9.48;;;5.65;;
12567;SDS011;6349;50.904;6.136;2023-10-09T08:29:01;8.68;;;6.32;;
12567;SDS011;6349;50.904;6.136;2023-10-09T08:31:17;9.15;;;6.38;;
12567;SDS011;6349;50.904;6.136;2023-10-09T08:33:19;9.57;;;6.43;;
12567;SDS011;6349;50.904;6.136;2023-10-09T08:35:29;9.13;;;5.90;;
12567;SDS011;6349;50.904;6.136;2023-10-09T08:37:31;7.68;;;6.50;;
12567;SDS011;6349;50.904;6.136;2023-10-09T08:39:31;7.22;;;5.70;;
12567;SDS011;6349;50.904;6.136;2023-10-09T08:41:35;7.20;;;5.32;;
12567;SDS011;6349;50.904;6.136;2023-10-09T08:43:37;7.97;;;5.97;;
12567;SDS011;6349;50.904;6.136;2023-10-09T08:45:45;7.30;;;5.53;;
12567;SDS011;6349;50.904;6.136;2023-10-09T08:47:46;7.30;;;6.10;;
12567;SDS011;6349;50.904;6.136;2023-10-09T08:49:49;9.52;;;5.95;;
12567;SDS011;6349;50.904;6.136;2023-10-09T08:51:51;10.90;;;6.18;;
12567;SDS011;6349;50.904;6.136;2023-10-09T08:53:55;8.35;;;6.32;;
12567;SDS011;6349;50.904;6.136;2023-10-09T08:55:56;8.45;;;5.85;;
12567;SDS011;6349;50.904;6.136;2023-10-09T08:57:57;9.88;;;6.13;;
12567;SDS011;6349;50.904;6.136;2023-10-09T08:59:58;6.28;;;5.38;;
12567;SDS011;6349;50.904;6.136;2023-10-09T09:02:00;8.52;;;6.05;;
12567;SDS011;6349;50.904;6.136;2023-10-09T09:04:03;7.78;;;5.43;;
12567;SDS011;6349;50.904;6.136;2023-10-09T09:06:04;7.50;;;5.75;;
12567;SDS011;6349;50.904;6.136;2023-10-09T09:08:06;6.30;;;4.93;;
12567;SDS011;6349;50.904;6.136;2023-10-09T09:10:28;6.95;;;5.45;;
12567;SDS011;6349;50.904;6.136;2023-10-09T09:12:37;7.70;;;4.90;;
12567;SDS011;6349;50.904;6.136;2023-10-09T09:14:40;5.72;;;5.07;;
12567;SDS011;6349;50.904;6.136;2023-10-09T09:16:41;7.80;;;5.10;;
12567;SDS011;6349;50.904;6.136;2023-10-09T09:18:48;7.38;;;5.43;;
12567;SDS011;6349;50.904;6.136;2023-10-09T09:21:00;7.50;;;5.70;;
12567;SDS011;6349;50.904;6.136;2023-10-09T09:23:01;8.43;;;5.18;;
12567;SDS011;6349;50.904;6.136;2023-10-09T09:25:04;7.35;;;5.80;;
12567;SDS011;6349;50.904;6.136;2023-10-09T09:27:09;7.35;;;5.18;;
12567;SDS011;6349;50.904;6.136;2023-10-09T09:29:15;7.50;;;4.95;;
12567;SDS011;6349;50.904;6.136;2023-10-09T09:31:20;7.68;;;4.97;;
12567;SDS011;6349;50.904;6.136;2023-10-09T09:33:26;6.65;;;5.25;;
12567;SDS011;6349;50.904;6.136;2023-10-09T09:35:39;6.65;;;4.80;;
12567;SDS011;6349;50.904;6.136;2023-10-09T09:37:55;8.35;;;5.60;;
12567;SDS011;6349;50.904;6.136;2023-10-09T09:40:03;6.70;;;4.50;;
12567;SDS011;6349;50.904;6.136;2023-10-09T09:42:29;7.07;;;4.78;;
12567;SDS011;6349;50.904;6.136;2023-10-09T09:44:33;6.70;;;4.68;;
12567;SDS011;6349;50.904;6.136;2023-10-09T09:46:43;8.05;;;5.10;;
12567;SDS011;6349;50.904;6.136;2023-10-09T09:48:45;7.03;;;5.20;;
12567;SDS011;6349;50.904;6.136;2023-10-09T09:50:48;6.80;;;4.43;;
12567;SDS011;6349;50.904;6.136;2023-10-09T09:52:49;6.90;;;4.90;;
12567;SDS011;6349;50.904;6.136;2023-10-09T09:54:53;6.85;;;4.47;;
12567;SDS011;6349;50.904;6.136;2023-10-09T09:56:54;5.95;;;4.57;;
12567;SDS011;6349;50.904;6.136;2023-10-09T09:58:57;8.32;;;4.57;;
12567;SDS011;6349;50.904;6.136;2023-10-09T10:01:04;5.60;;;4.50;;
12567;SDS011;6349;50.904;6.136;2023-10-09T10:03:29;5.82;;;4.10;;
12567;SDS011;6349;50.904;6.136;2023-10-09T10:05:33;6.07;;;4.00;;
12567;SDS011;6349;50.904;6.136;2023-10-09T10:07:34;6.85;;;4.15;;
12567;SDS011;6349;50.904;6.136;2023-10-09T10:09:43;4.80;;;4.30;;
12567;SDS011;6349;50.904;6.136;2023-10-09T10:11:45;7.63;;;4.70;;
12567;SDS011;6349;50.904;6.136;2023-10-09T10:13:54;6.60;;;4.15;;
12567;SDS011;6349;50.904;6.136;2023-10-09T10:16:05;6.47;;;3.78;;
12567;SDS011;6349;50.904;6.136;2023-10-09T10:18:18;6.57;;;4.03;;
12567;SDS011;6349;50.904;6.136;2023-10-09T10:20:20;6.10;;;4.40;;
12567;SDS011;6349;50.904;6.136;2023-10-09T10:22:23;6.70;;;3.67;;
12567;SDS011;6349;50.904;6.136;2023-10-09T10:26:32;7.00;;;4.20;;
12567;SDS011;6349;50.904;6.136;2023-10-09T10:28:36;5.85;;;3.80;;
12567;SDS011;6349;50.904;6.136;2023-10-09T10:30:45;6.03;;;3.83;;
12567;SDS011;6349;50.904;6.136;2023-10-09T10:35:09;6.55;;;3.88;;
12567;SDS011;6349;50.904;6.136;2023-10-09T10:37:10;5.82;;;3.55;;
12567;SDS011;6349;50.904;6.136;2023-10-09T10:39:13;5.20;;;4.03;;
12567;SDS011;6349;50.904;6.136;2023-10-09T10:41:17;4.25;;;3.33;;
12567;SDS011;6349;50.904;6.136;2023-10-09T10:43:22;4.88;;;3.50;;
12567;SDS011;6349;50.904;6.136;2023-10-09T10:45:34;4.65;;;3.22;;
12567;SDS011;6349;50.904;6.136;2023-10-09T10:47:38;5.55;;;3.38;;
12567;SDS011;6349;50.904;6.136;2023-10-09T10:49:42;6.20;;;3.15;;
12567;SDS011;6349;50.904;6.136;2023-10-09T10:51:43;4.95;;;3.20;;
12567;SDS011;6349;50.904;6.136;2023-10-09T10:53:53;8.40;;;3.47;;
12567;SDS011;6349;50.904;6.136;2023-10-09T10:56:00;5.47;;;3.45;;
12567;SDS011;6349;50.904;6.136;2023-10-09T10:58:31;8.05;;;3.63;;
12567;SDS011;6349;50.904;6.136;2023-10-09T11:00:54;4.88;;;3.13;;
12567;SDS011;6349;50.904;6.136;2023-10-09T11:02:57;5.38;;;3.10;;
12567;SDS011;6349;50.904;6.136;2023-10-09T11:05:13;6.13;;;3.20;;
12567;SDS011;6349;50.904;6.136;2023-10-09T11:07:14;4.57;;;2.90;;
12567;SDS011;6349;50.904;6.136;2023-10-09T11:09:26;4.85;;;2.95;;
12567;SDS011;6349;50.904;6.136;2023-10-09T11:11:36;5.40;;;3.20;;
12567;SDS011;6349;50.904;6.136;2023-10-09T11:13:47;6.60;;;3.38;;
12567;SDS011;6349;50.904;6.136;2023-10-09T11:16:04;5.32;;;3.28;;
12567;SDS011;6349;50.904;6.136;2023-10-09T11:18:28;4.85;;;3.33;;
12567;SDS011;6349;50.904;6.136;2023-10-09T11:20:29;4.05;;;3.15;;
12567;SDS011;6349;50.904;6.136;2023-10-09T11:22:32;5.60;;;3.22;;
12567;SDS011;6349;50.904;6.136;2023-10-09T11:24:39;4.15;;;3.30;;
12567;SDS011;6349;50.904;6.136;2023-10-09T11:26:43;5.68;;;3.25;;
12567;SDS011;6349;50.904;6.136;2023-10-09T11:31:23;5.05;;;3.30;;
12567;SDS011;6349;50.904;6.136;2023-10-09T11:33:24;4.35;;;3.25;;
12567;SDS011;6349;50.904;6.136;2023-10-09T11:35:29;6.03;;;4.00;;
12567;SDS011;6349;50.904;6.136;2023-10-09T11:37:34;6.22;;;3.55;;
12567;SDS011;6349;50.904;6.136;2023-10-09T11:39:39;4.70;;;3.65;;
12567;SDS011;6349;50.904;6.136;2023-10-09T11:41:59;5.75;;;3.60;;
12567;SDS011;6349;50.904;6.136;2023-10-09T11:44:04;4.78;;;3.45;;
12567;SDS011;6349;50.904;6.136;2023-10-09T11:46:09;6.25;;;3.92;;
12567;SDS011;6349;50.904;6.136;2023-10-09T11:48:32;5.88;;;3.50;;
12567;SDS011;6349;50.904;6.136;2023-10-09T11:50:46;6.68;;;3.53;;
12567;SDS011;6349;50.904;6.136;2023-10-09T11:52:57;6.03;;;3.70;;
12567;SDS011;6349;50.904;6.136;2023-10-09T11:55:17;7.55;;;4.10;;
12567;SDS011;6349;50.904;6.136;2023-10-09T11:57:18;5.63;;;3.50;;
12567;SDS011;6349;50.904;6.136;2023-10-09T11:59:18;7.68;;;3.38;;
12567;SDS011;6349;50.904;6.136;2023-10-09T12:01:19;5.93;;;4.00;;
12567;SDS011;6349;50.904;6.136;2023-10-09T12:03:24;4.68;;;3.35;;
12567;SDS011;6349;50.904;6.136;2023-10-09T12:05:28;5.80;;;3.55;;
12567;SDS011;6349;50.904;6.136;2023-10-09T12:07:28;5.65;;;3.83;;
12567;SDS011;6349;50.904;6.136;2023-10-09T12:09:29;6.82;;;3.50;;
12567;SDS011;6349;50.904;6.136;2023-10-09T12:11:30;7.70;;;3.70;;
12567;SDS011;6349;50.904;6.136;2023-10-09T12:13:31;5.53;;;3.53;;
12567;SDS011;6349;50.904;6.136;2023-10-09T12:15:31;6.78;;;3.83;;
12567;SDS011;6349;50.904;6.136;2023-10-09T12:17:38;7.22;;;3.50;;
12567;SDS011;6349;50.904;6.136;2023-10-09T12:19:44;7.20;;;3.70;;
12567;SDS011;6349;50.904;6.136;2023-10-09T12:21:44;4.50;;;3.65;;
12567;SDS011;6349;50.904;6.136;2023-10-09T12:23:45;7.18;;;3.58;;
12567;SDS011;6349;50.904;6.136;2023-10-09T12:25:50;6.95;;;3.55;;
12567;SDS011;6349;50.904;6.136;2023-10-09T12:27:51;4.45;;;3.28;;
12567;SDS011;6349;50.904;6.136;2023-10-09T12:29:57;6.38;;;3.45;;
12567;SDS011;6349;50.904;6.136;2023-10-09T12:31:58;7.00;;;3.67;;
12567;SDS011;6349;50.904;6.136;2023-10-09T12:33:59;4.82;;;3.33;;
12567;SDS011;6349;50.904;6.136;2023-10-09T12:35:59;7.10;;;3.75;;
12567;SDS011;6349;50.904;6.136;2023-10-09T12:38:00;3.53;;;2.88;;
12567;SDS011;6349;50.904;6.136;2023-10-09T12:40:01;6.82;;;3.70;;
12567;SDS011;6349;50.904;6.136;2023-10-09T12:42:05;6.07;;;3.70;;
12567;SDS011;6349;50.904;6.136;2023-10-09T12:44:12;5.50;;;3.40;;
12567;SDS011;6349;50.904;6.136;2023-10-09T12:46:15;4.43;;;3.22;;
12567;SDS011;6349;50.904;6.136;2023-10-09T12:48:16;5.95;;;3.58;;
12567;SDS011;6349;50.904;6.136;2023-10-09T12:50:16;5.57;;;3.38;;
12567;SDS011;6349;50.904;6.136;2023-10-09T12:52:27;6.53;;;3.30;;
12567;SDS011;6349;50.904;6.136;2023-10-09T12:54:29;7.60;;;3.53;;
12567;SDS011;6349;50.904;6.136;2023-10-09T12:56:31;7.40;;;4.25;;
12567;SDS011;6349;50.904;6.136;2023-10-09T12:58:38;8.25;;;4.15;;
12567;SDS011;6349;50.904;6.136;2023-10-09T13:00:38;7.00;;;3.97;;
12567;SDS011;6349;50.904;6.136;2023-10-09T13:02:59;6.43;;;3.72;;
12567;SDS011;6349;50.904;6.136;2023-10-09T13:05:01;5.05;;;3.75;;
12567;SDS011;6349;50.904;6.136;2023-10-09T13:07:05;6.80;;;4.03;;